Hauptseite
METAR-TAF:

METAR-TAF

Flughäfen :

Kuwait-Stadt, Kuwait

Flughafen Kuwait

Breite: 29-13N, Länge: 047-59E, Höhe: 55 m

Beobachtung

Neuester Wetterbericht von vor 57 Minuten, um 17:00 UTC
Wind 4 kt aus Ost
Temperatur 33°C
Luftfeuchtigkeit 30%
Luftdruck 1007 hPa
Sichtweite: 7000 m
Himmel klar

METAR: OKBK 261700Z 10004KT 7000 SKC 33/13 Q1007 NOSIG

Zeit: 20:57 (17:57 UTC)

Prognose

Neuester Wetterbericht von vor 1 Stunde und 12 Minuten, um 16:45 UTC
Gültige Prognose vom 26 um 18 UTC bis 27 um 24 UTC
Wind 8 kt aus Nord
Sichtweite: 7000 m
Himmel klar
Zeitweise
vom 26 um 18 UTC bis 27 um 01 UTC
Wind 3 kt aus unterschiedlichen Richtungen
Sichtweite: 3000 m
feuchter Dunst

TAF: OKBK 261645Z 2618/2724 36008KT 7000 SKC TEMPO 2618/2701 VRB03KT 3000 BR

Wetterbeobachtungen und Prognosen von mehr als 4000 Flughäfen (METAR und TAF Bericht).

Die verfügbaren Stationen werden durch gelbe und rote Markierungen auf der Karte dargestellt.

Führen Sie die Maus auf sie, um den Namen der Station zu sehen.

Darauf klicken, um die Beobachtung von Wetterbeobachtungen und Prognosen zu sehen.

Um die Karte zu ändern : klicken Sie auf den grünen Tasten mit einem schwarzen Kreuz Zum Vergrößern, auf den grünen Button mit einem Gedankenstrich zu verkleinern, oder auf die grünen Pfeile für benachbarte Karten.


METAR-TAF: